Time;durP1;ratioP1;P1;durP2;ratioP2;P2;SDS_P1;SDS_P2;PMS_P1;PMS_P2;Temp;Humidity;BMP_temperature;BMP_pressure;BME280_temperature;BME280_humidity;BME280_pressure;Samples;Min_cycle;Max_cycle;Signal;HPM_P1;HPM_P2
2023/03/17 00:01:53;;;;;;;3.50;1.50;;;;;;;6.32;57.95;100503.21;107328;1256;71320;-69
2023/03/17 00:04:23;;;;;;;3.20;1.50;;;;;;;6.32;57.96;100502.71;107427;1256;72777;-69
2023/03/17 00:06:50;;;;;;;3.20;1.50;;;;;;;6.31;57.95;100501.75;107499;1257;60453;-69
2023/03/17 00:09:18;;;;;;;3.30;1.40;;;;;;;6.29;58.01;100490.37;107262;1257;60541;-69
2023/03/17 00:11:45;;;;;;;2.80;1.70;;;;;;;6.27;57.97;100488.49;107058;1262;71712;-69
2023/03/17 00:14:13;;;;;;;2.90;1.80;;;;;;;6.26;58.33;100486.30;106896;1259;69787;-70
2023/03/17 00:16:42;;;;;;;3.30;1.60;;;;;;;6.24;58.29;100490.64;107057;1257;73311;-70
2023/03/17 00:19:16;;;;;;;2.90;1.70;;;;;;;6.23;58.46;100489.04;106966;1259;60635;-69
2023/03/17 00:21:44;;;;;;;4.10;1.90;;;;;;;6.21;58.31;100486.41;107039;1258;60313;-68
2023/03/17 00:24:12;;;;;;;3.00;1.60;;;;;;;6.18;58.46;100485.46;107214;1262;73926;-70
2023/03/17 00:26:42;;;;;;;3.30;1.60;;;;;;;6.16;58.57;100477.45;107096;1256;69980;-71
2023/03/17 00:29:09;;;;;;;3.90;1.90;;;;;;;6.13;58.61;100478.58;107251;1256;72191;-69
2023/03/17 00:31:37;;;;;;;4.40;1.90;;;;;;;6.09;58.71;100476.45;106937;1257;60438;-69
2023/03/17 00:34:06;;;;;;;2.90;1.70;;;;;;;6.05;58.85;100474.73;106882;1255;61367;-70
2023/03/17 00:36:36;;;;;;;3.80;1.90;;;;;;;6.02;58.87;100477.73;107176;1260;73640;-69
2023/03/17 00:39:11;;;;;;;3.80;1.80;;;;;;;5.99;58.74;100476.94;107355;1257;70216;-69
2023/03/17 00:41:38;;;;;;;3.70;2.00;;;;;;;5.97;58.73;100473.98;107008;1260;71515;-69
2023/03/17 00:44:04;;;;;;;3.00;1.80;;;;;;;5.96;58.99;100476.70;107084;1257;60497;-68
2023/03/17 00:46:34;;;;;;;4.00;2.10;;;;;;;5.94;59.32;100477.40;107124;1258;60381;-68
2023/03/17 00:49:11;;;;;;;3.80;2.30;;;;;;;5.92;59.70;100478.16;106884;1262;73366;-70
2023/03/17 00:51:38;;;;;;;3.00;1.90;;;;;;;5.86;60.27;100476.92;106919;1260;68677;-69
2023/03/17 00:54:05;;;;;;;3.80;2.40;;;;;;;5.76;60.80;100483.70;106770;1260;72305;-69
2023/03/17 00:56:32;;;;;;;4.00;2.30;;;;;;;5.66;61.33;100487.14;107005;1258;60528;-70
2023/03/17 00:58:59;;;;;;;3.10;2.20;;;;;;;5.57;61.73;100478.16;107276;1260;59427;-69
2023/03/17 01:01:26;;;;;;;3.70;2.20;;;;;;;5.47;62.58;100474.10;106762;1262;73042;-69
2023/03/17 01:03:53;;;;;;;3.90;2.20;;;;;;;5.37;62.97;100466.30;106927;1260;70920;-69
2023/03/17 01:06:19;;;;;;;3.70;2.30;;;;;;;5.28;63.52;100460.96;107162;1257;71176;-68
2023/03/17 01:08:46;;;;;;;4.20;2.30;;;;;;;5.21;63.80;100455.85;106787;1258;60425;-69
2023/03/17 01:11:18;;;;;;;4.00;2.30;;;;;;;5.14;64.00;100451.59;107270;1257;60958;-69
2023/03/17 01:13:45;;;;;;;4.30;2.30;;;;;;;5.09;64.38;100447.16;106882;1257;74069;-69
2023/03/17 01:16:13;;;;;;;4.70;2.10;;;;;;;5.06;64.58;100437.60;107390;1256;69771;-70
2023/03/17 01:18:40;;;;;;;3.70;2.40;;;;;;;5.05;64.57;100439.06;107045;1257;71518;-70
2023/03/17 01:21:07;;;;;;;3.80;2.30;;;;;;;5.07;64.56;100446.98;107098;1262;61158;-69
2023/03/17 01:23:34;;;;;;;4.20;2.50;;;;;;;5.09;64.23;100448.41;107080;1257;60499;-69
2023/03/17 01:26:01;;;;;;;4.40;2.20;;;;;;;5.10;64.48;100446.68;106962;1257;72722;-69
2023/03/17 01:28:28;;;;;;;3.80;2.20;;;;;;;5.11;64.66;100450.80;106821;1256;70331;-70
2023/03/17 01:30:55;;;;;;;3.80;2.40;;;;;;;5.13;64.48;100458.52;107022;1256;72874;-69
2023/03/17 01:33:24;;;;;;;4.80;2.40;;;;;;;5.15;64.44;100460.45;107309;1257;61475;-71
2023/03/17 01:35:51;;;;;;;6.30;2.70;;;;;;;5.16;64.40;100454.90;106834;1261;60801;-71
2023/03/17 01:38:18;;;;;;;3.80;2.20;;;;;;;5.18;64.26;100454.73;107263;1257;72349;-69
2023/03/17 01:40:48;;;;;;;4.20;2.30;;;;;;;5.22;64.22;100460.33;106952;1258;71061;-69
2023/03/17 01:43:28;;;;;;;4.60;2.70;;;;;;;5.27;64.10;100460.36;107139;1260;74425;-69
2023/03/17 01:46:10;;;;;;;4.80;2.70;;;;;;;5.33;63.68;100459.44;107161;1260;60547;-70
2023/03/17 01:49:14;;;;;;;4.30;2.50;;;;;;;5.39;63.46;100456.27;107383;1260;59481;-70
2023/03/17 01:52:13;;;;;;;4.40;2.70;;;;;;;5.45;63.24;100456.13;107366;1257;73722;-70
2023/03/17 01:54:52;;;;;;;4.90;2.80;;;;;;;5.52;63.10;100449.93;108935;1256;70505;-68
2023/03/17 01:57:28;;;;;;;4.10;2.60;;;;;;;5.54;62.86;100439.70;107939;1257;73662;-69
2023/03/17 02:00:00;;;;;;;4.60;2.70;;;;;;;5.55;63.09;100427.39;107434;1257;60452;-70
2023/03/17 02:02:30;;;;;;;4.10;2.70;;;;;;;5.53;63.47;100424.19;107884;1257;60431;-70
2023/03/17 02:04:58;;;;;;;4.60;2.90;;;;;;;5.53;63.23;100423.01;107840;1260;72424;-68
2023/03/17 02:07:26;;;;;;;4.30;2.80;;;;;;;5.54;63.37;100418.30;106974;1257;71267;-70
2023/03/17 02:09:55;;;;;;;5.50;3.00;;;;;;;5.55;63.65;100420.84;107058;1258;72042;-72
2023/03/17 02:12:24;;;;;;;4.90;3.10;;;;;;;5.55;63.58;100421.20;107019;1257;61960;-69
2023/03/17 02:14:52;;;;;;;4.80;2.90;;;;;;;5.51;63.89;100413.52;106901;1256;60400;-68
2023/03/17 02:17:20;;;;;;;4.50;2.90;;;;;;;5.47;64.08;100414.45;106993;1257;72865;-69
2023/03/17 02:19:47;;;;;;;3.80;2.90;;;;;;;5.43;64.49;100420.29;106915;1261;70059;-69
2023/03/17 02:22:15;;;;;;;4.70;2.90;;;;;;;5.39;64.73;100421.20;106779;1258;72740;-69
2023/03/17 02:24:47;;;;;;;4.90;3.00;;;;;;;5.37;64.62;100409.29;107614;1257;60555;-68
2023/03/17 02:27:22;;;;;;;5.70;3.20;;;;;;;5.37;64.68;100401.40;107113;1256;60348;-70
2023/03/17 02:29:49;;;;;;;3.50;2.60;;;;;;;5.38;64.72;100403.36;106934;1261;73727;-69
2023/03/17 02:32:17;;;;;;;6.50;2.70;;;;;;;5.40;64.65;100407.79;107129;1260;69726;-69
2023/03/17 02:34:47;;;;;;;4.60;2.80;;;;;;;5.42;64.47;100409.52;106559;1263;70094;-69
2023/03/17 02:37:16;;;;;;;5.20;2.80;;;;;;;5.43;64.50;100410.27;107349;1256;60474;-69
2023/03/17 02:39:43;;;;;;;5.00;2.80;;;;;;;5.44;64.29;100423.44;106838;1255;60582;-73
2023/03/17 02:42:11;;;;;;;5.50;3.00;;;;;;;5.44;64.26;100426.80;107139;1257;72929;-69
2023/03/17 02:44:39;;;;;;;4.20;2.80;;;;;;;5.45;64.12;100426.89;106994;1257;71323;-71
2023/03/17 02:47:06;;;;;;;4.60;2.90;;;;;;;5.46;64.23;100432.37;107147;1257;73279;-69
2023/03/17 02:49:35;;;;;;;4.30;2.60;;;;;;;5.47;64.09;100430.53;106901;1257;60898;-70
2023/03/17 02:52:01;;;;;;;4.40;2.70;;;;;;;5.46;64.05;100423.84;106852;1258;60526;-70
2023/03/17 02:54:28;;;;;;;5.00;2.90;;;;;;;5.40;64.43;100419.01;106493;1257;73636;-69
2023/03/17 02:56:55;;;;;;;4.10;2.50;;;;;;;5.35;64.53;100420.18;107109;1260;70905;-68
2023/03/17 02:59:22;;;;;;;4.50;2.80;;;;;;;5.32;64.46;100437.27;107593;1258;72805;-69
2023/03/17 03:01:49;;;;;;;5.10;3.10;;;;;;;5.30;64.72;100440.80;106786;1257;60203;-69
2023/03/17 03:04:18;;;;;;;5.30;3.10;;;;;;;5.29;64.82;100443.45;106557;1261;60577;-68
2023/03/17 03:06:45;;;;;;;4.70;3.10;;;;;;;5.31;64.66;100444.18;106411;1256;73979;-70
2023/03/17 03:09:13;;;;;;;5.90;3.20;;;;;;;5.34;64.82;100438.84;106512;1257;70459;-68
2023/03/17 03:11:40;;;;;;;3.80;2.60;;;;;;;5.38;64.52;100431.16;106479;1261;72780;-69
2023/03/17 03:14:07;;;;;;;4.40;2.70;;;;;;;5.38;64.59;100415.02;106518;1257;60535;-70
2023/03/17 03:16:33;;;;;;;5.10;3.00;;;;;;;5.36;64.59;100410.27;106742;1257;60551;-69
2023/03/17 03:19:01;;;;;;;6.30;2.80;;;;;;;5.35;64.46;100410.54;106794;1257;72959;-68
2023/03/17 03:21:28;;;;;;;3.90;2.80;;;;;;;5.36;64.43;100410.65;106639;1257;70219;-69
2023/03/17 03:23:54;;;;;;;5.10;2.70;;;;;;;5.39;64.24;100406.14;106120;1257;72263;-69
2023/03/17 03:26:21;;;;;;;5.00;2.40;;;;;;;5.43;64.01;100410.23;106367;1260;61601;-69
2023/03/17 03:28:49;;;;;;;5.00;3.00;;;;;;;5.47;63.88;100415.45;106726;1257;60459;-69
2023/03/17 03:31:16;;;;;;;5.50;2.90;;;;;;;5.53;63.68;100415.27;106636;1261;73614;-68
2023/03/17 03:33:43;;;;;;;5.30;2.80;;;;;;;5.56;63.57;100411.60;106472;1260;70931;-69
2023/03/17 03:36:10;;;;;;;5.10;2.50;;;;;;;5.56;63.40;100409.50;107108;1263;71729;-69
2023/03/17 03:38:37;;;;;;;3.90;2.70;;;;;;;5.56;63.44;100413.52;106508;1257;61219;-69
2023/03/17 03:41:04;;;;;;;4.70;2.90;;;;;;;5.57;63.36;100412.06;106426;1257;60368;-70
2023/03/17 03:43:30;;;;;;;5.10;2.80;;;;;;;5.57;63.33;100408.41;106594;1257;74416;-70
2023/03/17 03:45:57;;;;;;;4.10;2.80;;;;;;;5.56;63.40;100407.80;106454;1258;69698;-71
2023/03/17 03:48:24;;;;;;;4.70;2.80;;;;;;;5.55;63.47;100406.25;106478;1257;71192;-67
2023/03/17 03:50:55;;;;;;;4.70;3.10;;;;;;;5.55;63.43;100409.96;106548;1257;61251;-69
2023/03/17 03:53:22;;;;;;;4.50;2.80;;;;;;;5.53;63.46;100406.83;107187;1257;60344;-68
2023/03/17 03:55:49;;;;;;;6.20;3.50;;;;;;;5.51;63.57;100404.23;106286;1258;72345;-68
2023/03/17 03:58:16;;;;;;;4.10;2.80;;;;;;;5.48;63.67;100404.98;106703;1257;69681;-68
2023/03/17 04:00:43;;;;;;;4.60;2.60;;;;;;;5.44;63.81;100401.77;106633;1263;72549;-68
2023/03/17 04:03:10;;;;;;;5.60;2.80;;;;;;;5.38;63.96;100395.20;106673;1257;60529;-70
2023/03/17 04:05:36;;;;;;;5.30;2.90;;;;;;;5.31;64.05;100390.73;106834;1257;60369;-70
2023/03/17 04:08:03;;;;;;;5.20;2.90;;;;;;;5.25;64.48;100385.20;106576;1257;73884;-70
2023/03/17 04:10:30;;;;;;;4.40;2.90;;;;;;;5.17;64.55;100369.67;107066;1257;70272;-70
2023/03/17 04:12:57;;;;;;;5.60;3.30;;;;;;;5.09;64.79;100365.16;106703;1257;73233;-69
2023/03/17 04:15:24;;;;;;;5.80;3.50;;;;;;;5.00;65.16;100349.19;106554;1257;60919;-70
2023/03/17 04:17:53;;;;;;;4.90;3.20;;;;;;;4.90;65.26;100342.05;106602;1257;61670;-69
2023/03/17 04:20:21;;;;;;;5.20;2.80;;;;;;;4.83;65.63;100345.38;106585;1257;73578;-68
2023/03/17 04:22:47;;;;;;;5.10;3.00;;;;;;;4.76;65.75;100348.69;106631;1258;69350;-69
2023/03/17 04:25:14;;;;;;;5.70;3.40;;;;;;;4.68;65.88;100349.40;106532;1257;72381;-68
2023/03/17 04:27:41;;;;;;;6.80;3.50;;;;;;;4.59;66.08;100341.84;106580;1257;60297;-70
2023/03/17 04:30:12;;;;;;;4.80;3.20;;;;;;;4.50;66.46;100342.48;106883;1261;59766;-70
2023/03/17 04:32:40;;;;;;;5.70;3.60;;;;;;;4.40;66.61;100344.11;106280;1257;73987;-69
2023/03/17 04:35:21;;;;;;;5.60;3.40;;;;;;;4.33;66.99;100350.42;106649;1257;71703;-69
2023/03/17 04:37:48;;;;;;;6.20;3.50;;;;;;;4.25;67.34;100351.62;106537;1257;72771;-73
2023/03/17 04:40:16;;;;;;;8.00;4.00;;;;;;;4.19;67.41;100343.33;106497;1256;61306;-70
2023/03/17 04:42:43;;;;;;;8.00;3.80;;;;;;;4.15;67.52;100337.70;106634;1258;60367;-69
2023/03/17 04:45:12;;;;;;;7.70;4.30;;;;;;;4.13;68.02;100340.36;106608;1257;73846;-68
2023/03/17 04:47:39;;;;;;;5.70;3.30;;;;;;;4.13;67.93;100348.42;106665;1258;69973;-70
2023/03/17 04:50:07;;;;;;;6.70;3.60;;;;;;;4.16;67.82;100353.59;106983;1257;70247;-69
2023/03/17 04:52:35;;;;;;;5.40;3.20;;;;;;;4.19;67.64;100347.02;106545;1257;61335;-69
2023/03/17 04:55:03;;;;;;;5.10;3.30;;;;;;;4.21;67.92;100348.39;106848;1257;60456;-69
2023/03/17 04:57:30;;;;;;;5.80;3.20;;;;;;;4.21;67.92;100348.15;106496;1256;73838;-70
2023/03/17 04:59:57;;;;;;;5.30;3.30;;;;;;;4.21;67.66;100349.73;106587;1261;69860;-69
2023/03/17 05:02:23;;;;;;;6.70;3.10;;;;;;;4.22;67.70;100351.77;106732;1257;71150;-68
2023/03/17 05:04:50;;;;;;;5.60;3.40;;;;;;;4.21;67.65;100354.33;106547;1258;60442;-69
2023/03/17 05:07:17;;;;;;;5.70;3.60;;;;;;;4.19;67.61;100355.18;107156;1257;59462;-70
2023/03/17 05:09:44;;;;;;;5.90;3.30;;;;;;;4.17;67.73;100350.30;106528;1257;72822;-70
2023/03/17 05:12:12;;;;;;;5.60;3.40;;;;;;;4.16;67.87;100343.96;106628;1257;71087;-70
2023/03/17 05:14:39;;;;;;;5.40;3.70;;;;;;;4.12;67.85;100343.23;106520;1257;72974;-69
2023/03/17 05:17:06;;;;;;;6.00;3.40;;;;;;;4.08;68.22;100339.54;106610;1257;60401;-70
2023/03/17 05:19:33;;;;;;;5.10;3.60;;;;;;;4.09;68.32;100342.13;106468;1263;60361;-72
2023/03/17 05:21:59;;;;;;;5.50;3.50;;;;;;;4.10;68.55;100341.00;106724;1256;74002;-70
2023/03/17 05:24:26;;;;;;;6.60;3.70;;;;;;;4.08;68.65;100341.64;107259;1256;69926;-70
2023/03/17 05:26:53;;;;;;;5.80;3.70;;;;;;;4.06;68.67;100345.48;107025;1257;73654;-69
2023/03/17 05:29:20;;;;;;;6.30;3.60;;;;;;;4.04;68.71;100337.30;107595;1257;61143;-70
2023/03/17 05:31:47;;;;;;;6.90;4.30;;;;;;;4.02;68.88;100341.51;107272;1257;61111;-69
2023/03/17 05:34:14;;;;;;;6.30;3.80;;;;;;;4.00;68.86;100343.98;106904;1257;75937;-70
2023/03/17 05:36:42;;;;;;;6.50;3.60;;;;;;;3.99;69.16;100340.77;106749;1258;69755;-68
2023/03/17 05:39:09;;;;;;;6.40;3.90;;;;;;;3.98;68.97;100340.86;106957;1257;72814;-69
2023/03/17 05:41:36;;;;;;;5.10;3.70;;;;;;;3.98;69.07;100326.16;106834;1257;61217;-69
2023/03/17 05:44:02;;;;;;;5.20;3.50;;;;;;;3.98;69.03;100314.55;107129;1257;61371;-68
2023/03/17 05:46:30;;;;;;;5.70;4.20;;;;;;;3.98;69.28;100320.71;106662;1257;74678;-70
2023/03/17 05:48:57;;;;;;;6.50;3.60;;;;;;;3.97;69.13;100339.19;106489;1257;71392;-70
2023/03/17 05:51:26;;;;;;;5.40;3.80;;;;;;;3.96;69.36;100338.77;106576;1257;72934;-68
2023/03/17 05:53:53;;;;;;;7.40;4.40;;;;;;;3.95;69.34;100330.11;106161;1257;61284;-70
2023/03/17 05:56:19;;;;;;;6.20;4.00;;;;;;;3.93;69.57;100328.52;106943;1257;61863;-68
2023/03/17 05:58:46;;;;;;;7.40;4.40;;;;;;;3.92;69.81;100328.86;108103;1257;74446;-70
2023/03/17 06:01:13;;;;;;;8.80;4.10;;;;;;;3.92;70.03;100327.29;107119;1257;69431;-68
2023/03/17 06:03:40;;;;;;;7.30;4.00;;;;;;;3.89;69.88;100326.10;108088;1256;71852;-70
2023/03/17 06:06:08;;;;;;;8.10;3.90;;;;;;;3.87;70.23;100321.04;107439;1257;61403;-70
2023/03/17 06:08:34;;;;;;;6.90;3.70;;;;;;;3.86;70.38;100310.33;106521;1257;61340;-70
2023/03/17 06:11:01;;;;;;;6.10;3.80;;;;;;;3.87;70.33;100311.46;106824;1257;74429;-69
2023/03/17 06:13:28;;;;;;;5.60;3.60;;;;;;;3.88;70.25;100316.92;106771;1257;69693;-70
2023/03/17 06:15:56;;;;;;;6.90;3.90;;;;;;;3.91;70.24;100321.04;106494;1257;71718;-70
2023/03/17 06:18:23;;;;;;;6.80;3.80;;;;;;;3.95;70.24;100318.02;106823;1257;61349;-70
2023/03/17 06:20:50;;;;;;;6.90;3.80;;;;;;;4.00;70.33;100318.11;107146;1258;61199;-69
2023/03/17 06:23:17;;;;;;;8.70;3.70;;;;;;;4.05;70.15;100324.27;107108;1257;73486;-69
2023/03/17 06:25:44;;;;;;;7.10;3.80;;;;;;;4.11;70.02;100328.62;106776;1256;70934;-70
2023/03/17 06:28:12;;;;;;;5.40;3.30;;;;;;;4.18;70.02;100327.50;106861;1257;71154;-70
2023/03/17 06:30:39;;;;;;;5.40;3.20;;;;;;;4.26;69.72;100328.16;106906;1257;61237;-70
2023/03/17 06:33:07;;;;;;;5.70;3.30;;;;;;;4.32;69.44;100320.21;106699;1257;61153;-69
2023/03/17 06:35:33;;;;;;;5.60;3.30;;;;;;;4.40;69.34;100323.27;106507;1257;74732;-72
2023/03/17 06:38:02;;;;;;;5.90;3.10;;;;;;;4.53;69.31;100318.63;106785;1257;70940;-69
2023/03/17 06:40:29;;;;;;;5.40;3.50;;;;;;;4.68;69.02;100316.46;107347;1257;72606;-70
2023/03/17 06:42:55;;;;;;;5.20;3.10;;;;;;;4.85;68.59;100314.89;106476;1257;62441;-71
2023/03/17 06:45:22;;;;;;;4.80;3.00;;;;;;;5.02;67.68;100313.59;106741;1257;60629;-69
2023/03/17 06:47:49;;;;;;;5.00;3.20;;;;;;;5.20;67.08;100314.80;106588;1261;74746;-70
2023/03/17 06:50:16;;;;;;;4.50;3.00;;;;;;;5.38;66.28;100319.90;106573;1263;70813;-70
2023/03/17 06:52:43;;;;;;;5.30;3.10;;;;;;;5.56;66.07;100324.77;107111;1257;72517;-71
2023/03/17 06:55:12;;;;;;;5.30;3.20;;;;;;;5.73;65.64;100327.80;106623;1257;61642;-69
2023/03/17 06:57:39;;;;;;;5.20;2.90;;;;;;;5.90;65.43;100330.03;106450;1257;61347;-70
2023/03/17 07:00:07;;;;;;;4.90;3.20;;;;;;;6.06;65.28;100333.23;106500;1260;74486;-69
2023/03/17 07:02:34;;;;;;;4.50;2.70;;;;;;;6.23;64.75;100336.39;106605;1257;70986;-70
2023/03/17 07:05:03;;;;;;;5.30;2.90;;;;;;;6.39;64.08;100339.77;106062;1257;72721;-69
2023/03/17 07:07:30;;;;;;;6.50;3.10;;;;;;;6.52;63.68;100333.79;106515;1257;61349;-70
2023/03/17 07:09:57;;;;;;;6.10;3.00;;;;;;;6.66;63.17;100331.95;106545;1257;61148;-70
2023/03/17 07:12:24;;;;;;;4.50;3.00;;;;;;;6.81;62.53;100327.64;106605;1260;73309;-69
2023/03/17 07:14:51;;;;;;;4.20;2.80;;;;;;;6.96;62.84;100323.23;106696;1257;70937;-70
2023/03/17 07:17:18;;;;;;;4.60;2.90;;;;;;;7.10;61.26;100319.36;106664;1257;72933;-70
2023/03/17 07:19:45;;;;;;;5.30;3.00;;;;;;;7.26;61.36;100314.31;106364;1262;61307;-70
2023/03/17 07:22:12;;;;;;;4.90;3.00;;;;;;;7.41;59.90;100313.59;106575;1258;62510;-72
2023/03/17 07:24:41;;;;;;;5.80;2.80;;;;;;;7.57;59.32;100321.41;106167;1257;74199;-70
2023/03/17 07:27:09;;;;;;;4.30;2.70;;;;;;;7.74;59.21;100320.84;106690;1256;71278;-70
2023/03/17 07:29:35;;;;;;;4.30;2.40;;;;;;;7.91;58.70;100314.98;108474;1260;72572;-70
2023/03/17 07:32:05;;;;;;;4.40;2.60;;;;;;;8.05;57.89;100311.23;108595;1257;59219;-70
2023/03/17 07:34:32;;;;;;;4.20;2.40;;;;;;;8.17;56.70;100310.13;107003;1257;61367;-71
2023/03/17 07:36:59;;;;;;;5.20;2.30;;;;;;;8.33;56.55;100310.91;107037;1257;75157;-69
2023/03/17 07:39:26;;;;;;;4.00;2.60;;;;;;;8.51;56.76;100310.35;107404;1257;71163;-72
2023/03/17 07:41:54;;;;;;;4.10;2.70;;;;;;;8.63;56.20;100311.30;106378;1257;71149;-70
2023/03/17 07:44:22;;;;;;;4.20;2.60;;;;;;;8.73;55.63;100310.04;106259;1258;61234;-70
2023/03/17 07:46:50;;;;;;;3.90;2.20;;;;;;;8.82;54.61;100312.70;106365;1259;61274;-70
2023/03/17 07:49:17;;;;;;;7.00;2.60;;;;;;;8.90;54.77;100310.52;106902;1257;74772;-70
2023/03/17 07:51:59;;;;;;;4.30;2.40;;;;;;;9.01;54.21;100306.65;106194;1258;71345;-73
2023/03/17 07:54:27;;;;;;;3.90;2.40;;;;;;;9.15;53.99;100305.61;106811;1258;71804;-71
2023/03/17 07:56:55;;;;;;;4.10;2.00;;;;;;;9.32;53.59;100308.03;106196;1257;63176;-71
2023/03/17 07:59:22;;;;;;;4.40;2.50;;;;;;;9.48;52.93;100307.99;106288;1257;61520;-70
2023/03/17 08:01:49;;;;;;;4.20;2.70;;;;;;;9.66;53.16;100307.45;106210;1262;74310;-71
2023/03/17 08:04:16;;;;;;;4.50;2.10;;;;;;;9.84;52.16;100306.83;106203;1257;72065;-70
2023/03/17 08:06:45;;;;;;;3.80;2.10;;;;;;;9.98;51.40;100300.77;106291;1257;72793;-70
2023/03/17 08:09:12;;;;;;;4.60;2.00;;;;;;;10.08;50.87;100303.95;106905;1257;61248;-72
2023/03/17 08:11:39;;;;;;;3.80;2.20;;;;;;;10.21;50.88;100304.10;106314;1257;61173;-72
2023/03/17 08:14:06;;;;;;;3.50;1.90;;;;;;;10.32;50.85;100296.07;106263;1257;74521;-71
2023/03/17 08:16:33;;;;;;;4.20;2.20;;;;;;;10.39;50.16;100290.58;106611;1257;70061;-70
2023/03/17 08:19:02;;;;;;;3.50;2.00;;;;;;;10.45;49.90;100286.59;106751;1256;71090;-71
2023/03/17 08:21:29;;;;;;;4.10;2.30;;;;;;;10.51;50.00;100281.73;106291;1257;61125;-73
2023/03/17 08:23:56;;;;;;;4.90;2.30;;;;;;;10.58;49.86;100284.23;106108;1257;61205;-71
2023/03/17 08:26:24;;;;;;;3.60;1.90;;;;;;;10.68;50.14;100290.21;106207;1262;74124;-71
2023/03/17 08:28:50;;;;;;;3.10;2.00;;;;;;;10.81;50.12;100299.16;107236;1257;70212;-70
2023/03/17 08:31:19;;;;;;;4.30;2.00;;;;;;;10.95;49.54;100305.31;106416;1257;72791;-70
2023/03/17 08:33:49;;;;;;;4.10;1.80;;;;;;;11.02;48.95;100304.26;106339;1258;61313;-72
2023/03/17 08:36:17;;;;;;;3.10;1.90;;;;;;;11.10;49.27;100304.33;106320;1257;59271;-71
2023/03/17 08:38:45;;;;;;;3.60;1.80;;;;;;;11.17;49.38;100300.45;106301;1257;73592;-71
2023/03/17 08:41:18;;;;;;;3.20;1.90;;;;;;;11.25;49.21;100297.58;105973;1257;71046;-73
2023/03/17 08:43:45;;;;;;;3.10;1.90;;;;;;;11.39;49.84;100294.91;106185;1263;70504;-71
2023/03/17 08:46:16;;;;;;;3.30;1.80;;;;;;;11.56;49.40;100295.22;106330;1257;62862;-72
2023/03/17 08:48:45;;;;;;;3.50;1.90;;;;;;;11.74;49.26;100297.17;106892;1257;62079;-72
2023/03/17 08:51:13;;;;;;;2.50;1.70;;;;;;;11.92;48.12;100295.31;106522;1256;74633;-71
2023/03/17 08:53:43;;;;;;;3.00;1.70;;;;;;;12.02;48.41;100294.51;106542;1258;69937;-72
2023/03/17 08:56:11;;;;;;;3.60;2.10;;;;;;;12.13;46.39;100291.18;106302;1257;72447;-71
2023/03/17 08:58:41;;;;;;;4.70;2.00;;;;;;;12.29;45.30;100291.73;105969;1264;61755;-71
2023/03/17 09:01:12;;;;;;;3.30;1.50;;;;;;;12.43;44.26;100293.84;106343;1255;61262;-71
2023/03/17 09:03:39;;;;;;;2.80;1.70;;;;;;;12.53;43.63;100295.70;106581;1256;72749;-71
2023/03/17 09:06:08;;;;;;;3.20;1.80;;;;;;;12.63;43.62;100289.56;106113;1261;70559;-72
2023/03/17 09:08:38;;;;;;;3.60;1.60;;;;;;;12.71;43.23;100286.48;106728;1259;72393;-73
2023/03/17 09:11:07;;;;;;;3.80;1.70;;;;;;;12.84;42.82;100287.66;106180;1259;61300;-73
2023/03/17 09:13:36;;;;;;;3.50;1.70;;;;;;;12.93;42.84;100285.86;106677;1257;61127;-72
2023/03/17 09:16:02;;;;;;;4.10;1.60;;;;;;;13.02;42.90;100283.42;106925;1258;73652;-71
2023/03/17 09:18:31;;;;;;;3.40;1.90;;;;;;;13.11;42.58;100279.47;106418;1257;71224;-71
2023/03/17 09:20:58;;;;;;;4.10;1.70;;;;;;;13.17;42.45;100275.84;106588;1258;71461;-72
2023/03/17 09:23:25;;;;;;;2.80;1.60;;;;;;;13.22;43.02;100274.30;106151;1257;61188;-73
2023/03/17 09:25:52;;;;;;;2.90;1.70;;;;;;;13.29;43.73;100280.19;106176;1258;61258;-72
2023/03/17 09:28:19;;;;;;;2.90;1.70;;;;;;;13.36;44.13;100275.48;106002;1257;72350;-72
2023/03/17 09:30:46;;;;;;;4.20;1.90;;;;;;;13.52;43.04;100278.73;106243;1257;71526;-74
2023/03/17 09:33:14;;;;;;;3.40;1.50;;;;;;;13.66;43.39;100280.63;106117;1257;72730;-72
2023/03/17 09:35:41;;;;;;;6.10;1.70;;;;;;;13.80;43.32;100281.56;106126;1257;61447;-72
2023/03/17 09:38:09;;;;;;;2.70;1.50;;;;;;;13.89;42.95;100272.98;106652;1257;61236;-72
2023/03/17 09:40:50;;;;;;;3.60;1.50;;;;;;;13.95;42.42;100269.49;106485;1257;74352;-73
2023/03/17 09:43:55;;;;;;;3.10;1.60;;;;;;;14.01;42.50;100265.87;106312;1258;71401;-72
2023/03/17 09:46:36;;;;;;;3.80;1.70;;;;;;;14.11;42.55;100267.41;106393;1260;70808;-71
2023/03/17 09:49:24;;;;;;;3.70;1.60;;;;;;;14.21;41.56;100260.36;106237;1257;61230;-72
2023/03/17 09:51:52;;;;;;;2.70;1.40;;;;;;;14.21;40.71;100265.08;105925;1257;61850;-71
2023/03/17 09:54:34;;;;;;;3.20;1.50;;;;;;;14.24;40.29;100270.61;106375;1257;73308;-72
2023/03/17 09:57:18;;;;;;;3.70;1.50;;;;;;;14.32;40.75;100269.61;106284;1258;70081;-72
2023/03/17 09:59:51;;;;;;;2.70;1.40;;;;;;;14.39;40.26;100271.27;106594;1257;72657;-71
2023/03/17 10:02:26;;;;;;;3.90;1.60;;;;;;;14.39;39.51;100273.54;106233;1258;61332;-73
2023/03/17 10:04:53;;;;;;;2.50;1.40;;;;;;;14.43;39.73;100281.23;106348;1258;61244;-73
2023/03/17 10:07:27;;;;;;;2.50;1.40;;;;;;;14.43;39.93;100284.92;106044;1257;73163;-74
2023/03/17 10:09:56;;;;;;;2.80;1.40;;;;;;;14.48;39.83;100281.38;106151;1258;69675;-72
2023/03/17 10:12:41;;;;;;;3.40;1.40;;;;;;;14.49;40.15;100280.92;106268;1258;72674;-72
2023/03/17 10:15:35;;;;;;;3.00;1.50;;;;;;;14.52;39.66;100284.00;106479;1256;61362;-74
2023/03/17 10:18:10;;;;;;;3.10;1.50;;;;;;;14.52;39.36;100280.55;106226;1256;61253;-72
2023/03/17 10:21:01;;;;;;;2.70;1.40;;;;;;;14.65;40.00;100276.48;106222;1257;74483;-72
2023/03/17 10:23:34;;;;;;;2.70;1.60;;;;;;;14.74;39.50;100270.42;106546;1255;70533;-72
2023/03/17 10:26:11;;;;;;;2.70;1.50;;;;;;;14.83;39.53;100266.11;106029;1258;72693;-74
2023/03/17 10:28:38;;;;;;;2.40;1.20;;;;;;;14.90;39.69;100270.73;106243;1257;61213;-75
2023/03/17 10:31:31;;;;;;;3.80;1.60;;;;;;;14.99;39.99;100273.80;106717;1258;61349;-71
2023/03/17 10:34:12;;;;;;;2.80;1.30;;;;;;;15.13;39.26;100269.05;107241;1258;74644;-73
2023/03/17 10:36:43;;;;;;;2.00;1.30;;;;;;;15.26;39.22;100267.79;106453;1257;69960;-73
2023/03/17 10:39:13;;;;;;;2.50;1.50;;;;;;;15.39;38.71;100269.17;106475;1258;73365;-74
2023/03/17 10:41:51;;;;;;;3.20;1.40;;;;;;;15.53;39.12;100273.10;106124;1259;61243;-73
2023/03/17 10:44:27;;;;;;;2.70;1.30;;;;;;;15.64;38.16;100272.55;106430;1256;62828;-72
2023/03/17 10:46:55;;;;;;;3.60;1.30;;;;;;;15.72;37.81;100266.84;106023;1257;73041;-72
2023/03/17 10:49:24;;;;;;;2.30;1.30;;;;;;;15.79;37.99;100258.99;106398;1257;70339;-72
2023/03/17 10:51:52;;;;;;;3.10;1.40;;;;;;;15.88;37.79;100254.88;106838;1257;72724;-73
2023/03/17 10:54:23;;;;;;;2.20;1.10;;;;;;;15.95;38.00;100246.79;106263;1257;61301;-72
2023/03/17 10:56:59;;;;;;;2.60;1.50;;;;;;;15.99;37.62;100242.27;106190;1257;61352;-72
2023/03/17 10:59:31;;;;;;;2.40;1.20;;;;;;;16.03;37.80;100244.04;106586;1257;73271;-72
2023/03/17 11:02:04;;;;;;;2.70;1.40;;;;;;;16.00;37.14;100243.95;106482;1257;71038;-72
2023/03/17 11:04:35;;;;;;;2.60;1.40;;;;;;;15.97;37.20;100253.02;106363;1257;72716;-73
2023/03/17 11:07:14;;;;;;;2.90;1.50;;;;;;;15.96;36.86;100264.76;106973;1262;61164;-71
2023/03/17 11:09:41;;;;;;;2.70;1.70;;;;;;;16.01;37.21;100266.48;106726;1258;61377;-72
2023/03/17 11:12:25;;;;;;;3.10;1.30;;;;;;;16.13;37.57;100273.23;106612;1258;74804;-73
2023/03/17 11:15:04;;;;;;;3.30;1.70;;;;;;;16.16;36.41;100272.59;106652;1258;69957;-72
2023/03/17 11:17:49;;;;;;;2.80;1.50;;;;;;;16.16;35.38;100269.05;106679;1257;73527;-72
2023/03/17 11:20:38;;;;;;;4.30;1.50;;;;;;;16.19;35.78;100270.21;106468;1257;61213;-72
2023/03/17 11:23:27;;;;;;;7.40;1.40;;;;;;;16.13;35.40;100272.45;106708;1257;61692;-71
2023/03/17 11:26:13;;;;;;;2.40;1.20;;;;;;;16.19;35.93;100262.77;106764;1260;74027;-72
2023/03/17 11:28:45;;;;;;;2.80;1.20;;;;;;;16.34;36.72;100248.48;106528;1257;73357;-72
2023/03/17 11:31:30;;;;;;;2.20;1.30;;;;;;;16.56;36.51;100243.59;106192;1258;70729;-73
2023/03/17 11:34:07;;;;;;;3.90;1.60;;;;;;;16.83;36.00;100247.17;106662;1257;61720;-73